sensor_id;sensor_type;location;lat;lon;timestamp;temperature;humidity
36586;DHT22;22591;48.314;11.562;2024-02-15T00:00:40;7.50;99.90
36586;DHT22;22591;48.314;11.562;2024-02-15T00:03:06;7.70;99.90
36586;DHT22;22591;48.314;11.562;2024-02-15T00:05:38;7.70;99.90
36586;DHT22;22591;48.314;11.562;2024-02-15T00:08:04;7.80;99.90
36586;DHT22;22591;48.314;11.562;2024-02-15T00:10:31;7.70;99.90
36586;DHT22;22591;48.314;11.562;2024-02-15T00:12:57;7.90;99.90
36586;DHT22;22591;48.314;11.562;2024-02-15T00:15:23;7.90;99.90
36586;DHT22;22591;48.314;11.562;2024-02-15T00:17:48;7.90;99.90
36586;DHT22;22591;48.314;11.562;2024-02-15T00:20:14;7.80;99.90
36586;DHT22;22591;48.314;11.562;2024-02-15T00:22:40;7.80;99.90
36586;DHT22;22591;48.314;11.562;2024-02-15T00:25:08;7.80;99.90
36586;DHT22;22591;48.314;11.562;2024-02-15T00:27:37;7.80;99.90
36586;DHT22;22591;48.314;11.562;2024-02-15T00:30:06;7.70;99.90
36586;DHT22;22591;48.314;11.562;2024-02-15T00:32:35;7.60;99.90
36586;DHT22;22591;48.314;11.562;2024-02-15T00:35:02;7.60;99.90
36586;DHT22;22591;48.314;11.562;2024-02-15T00:37:28;7.70;99.90
36586;DHT22;22591;48.314;11.562;2024-02-15T00:39:53;7.60;99.90
36586;DHT22;22591;48.314;11.562;2024-02-15T00:42:19;7.50;99.90
36586;DHT22;22591;48.314;11.562;2024-02-15T00:44:44;7.60;99.90
36586;DHT22;22591;48.314;11.562;2024-02-15T00:47:10;7.60;99.90
36586;DHT22;22591;48.314;11.562;2024-02-15T00:49:37;7.60;99.90
36586;DHT22;22591;48.314;11.562;2024-02-15T00:52:03;7.60;99.90
36586;DHT22;22591;48.314;11.562;2024-02-15T00:54:28;7.60;99.90
36586;DHT22;22591;48.314;11.562;2024-02-15T00:56:54;7.40;99.90
36586;DHT22;22591;48.314;11.562;2024-02-15T00:59:19;7.30;99.90
36586;DHT22;22591;48.314;11.562;2024-02-15T01:01:45;7.30;99.90
36586;DHT22;22591;48.314;11.562;2024-02-15T01:04:11;7.40;99.90
36586;DHT22;22591;48.314;11.562;2024-02-15T01:06:37;7.30;99.90
36586;DHT22;22591;48.314;11.562;2024-02-15T01:09:03;7.30;99.90
36586;DHT22;22591;48.314;11.562;2024-02-15T01:11:30;7.30;99.90
36586;DHT22;22591;48.314;11.562;2024-02-15T01:13:57;7.30;99.90
36586;DHT22;22591;48.314;11.562;2024-02-15T01:16:23;7.40;99.90
36586;DHT22;22591;48.314;11.562;2024-02-15T01:18:50;7.50;99.90
36586;DHT22;22591;48.314;11.562;2024-02-15T01:21:15;7.50;99.90
36586;DHT22;22591;48.314;11.562;2024-02-15T01:23:42;7.50;99.90
36586;DHT22;22591;48.314;11.562;2024-02-15T01:26:08;7.60;99.90
36586;DHT22;22591;48.314;11.562;2024-02-15T01:28:33;7.60;99.90
36586;DHT22;22591;48.314;11.562;2024-02-15T01:30:59;7.60;99.90
36586;DHT22;22591;48.314;11.562;2024-02-15T01:33:25;7.60;99.90
36586;DHT22;22591;48.314;11.562;2024-02-15T01:35:50;7.60;99.90
36586;DHT22;22591;48.314;11.562;2024-02-15T01:38:16;7.60;99.90
36586;DHT22;22591;48.314;11.562;2024-02-15T01:40:41;7.60;99.90
36586;DHT22;22591;48.314;11.562;2024-02-15T01:43:08;7.50;99.90
36586;DHT22;22591;48.314;11.562;2024-02-15T01:45:33;7.50;99.90
36586;DHT22;22591;48.314;11.562;2024-02-15T01:47:59;7.50;99.90
36586;DHT22;22591;48.314;11.562;2024-02-15T01:50:25;7.50;99.90
36586;DHT22;22591;48.314;11.562;2024-02-15T01:52:53;7.40;99.90
36586;DHT22;22591;48.314;11.562;2024-02-15T01:55:20;7.30;99.90
36586;DHT22;22591;48.314;11.562;2024-02-15T01:57:46;7.30;99.90
36586;DHT22;22591;48.314;11.562;2024-02-15T02:00:13;7.20;99.90
36586;DHT22;22591;48.314;11.562;2024-02-15T02:02:41;7.10;99.90
36586;DHT22;22591;48.314;11.562;2024-02-15T02:05:08;7.30;99.90
36586;DHT22;22591;48.314;11.562;2024-02-15T02:07:33;7.30;99.90
36586;DHT22;22591;48.314;11.562;2024-02-15T02:09:59;7.20;99.90
36586;DHT22;22591;48.314;11.562;2024-02-15T02:12:25;7.30;99.90
36586;DHT22;22591;48.314;11.562;2024-02-15T02:14:55;7.40;99.90
36586;DHT22;22591;48.314;11.562;2024-02-15T02:17:21;7.50;99.90
36586;DHT22;22591;48.314;11.562;2024-02-15T02:19:47;7.50;99.90
36586;DHT22;22591;48.314;11.562;2024-02-15T02:22:16;7.50;99.90
36586;DHT22;22591;48.314;11.562;2024-02-15T02:25:01;7.50;99.90
36586;DHT22;22591;48.314;11.562;2024-02-15T02:27:30;7.40;99.90
36586;DHT22;22591;48.314;11.562;2024-02-15T02:29:57;7.40;99.90
36586;DHT22;22591;48.314;11.562;2024-02-15T02:32:25;7.40;99.90
36586;DHT22;22591;48.314;11.562;2024-02-15T02:34:51;7.40;99.90
36586;DHT22;22591;48.314;11.562;2024-02-15T02:37:16;7.40;99.90
36586;DHT22;22591;48.314;11.562;2024-02-15T02:39:43;7.30;99.90
36586;DHT22;22591;48.314;11.562;2024-02-15T02:42:08;7.30;99.90
36586;DHT22;22591;48.314;11.562;2024-02-15T02:44:34;7.30;99.90
36586;DHT22;22591;48.314;11.562;2024-02-15T02:46:59;7.20;99.90
36586;DHT22;22591;48.314;11.562;2024-02-15T02:49:25;7.20;99.90
36586;DHT22;22591;48.314;11.562;2024-02-15T02:51:50;7.30;99.90
36586;DHT22;22591;48.314;11.562;2024-02-15T02:54:16;7.20;99.90
36586;DHT22;22591;48.314;11.562;2024-02-15T02:56:42;7.10;99.90
36586;DHT22;22591;48.314;11.562;2024-02-15T02:59:10;7.20;99.90
36586;DHT22;22591;48.314;11.562;2024-02-15T03:01:36;7.30;99.90
36586;DHT22;22591;48.314;11.562;2024-02-15T03:04:02;7.30;99.90
36586;DHT22;22591;48.314;11.562;2024-02-15T03:06:27;7.20;99.90
36586;DHT22;22591;48.314;11.562;2024-02-15T03:08:53;7.20;99.90
36586;DHT22;22591;48.314;11.562;2024-02-15T03:11:23;7.00;99.90
36586;DHT22;22591;48.314;11.562;2024-02-15T03:13:48;7.10;99.90
36586;DHT22;22591;48.314;11.562;2024-02-15T03:16:14;7.20;99.90
36586;DHT22;22591;48.314;11.562;2024-02-15T03:18:39;7.20;99.90
36586;DHT22;22591;48.314;11.562;2024-02-15T03:21:06;7.20;99.90
36586;DHT22;22591;48.314;11.562;2024-02-15T03:23:34;7.10;99.90
36586;DHT22;22591;48.314;11.562;2024-02-15T03:26:01;7.00;99.90
36586;DHT22;22591;48.314;11.562;2024-02-15T03:28:27;6.80;99.90
36586;DHT22;22591;48.314;11.562;2024-02-15T03:30:52;6.70;99.90
36586;DHT22;22591;48.314;11.562;2024-02-15T03:33:18;6.60;99.90
36586;DHT22;22591;48.314;11.562;2024-02-15T03:35:43;6.50;99.90
36586;DHT22;22591;48.314;11.562;2024-02-15T03:38:09;6.50;99.90
36586;DHT22;22591;48.314;11.562;2024-02-15T03:40:34;6.30;99.90
36586;DHT22;22591;48.314;11.562;2024-02-15T03:43:00;6.30;99.90
36586;DHT22;22591;48.314;11.562;2024-02-15T03:45:25;6.40;99.90
36586;DHT22;22591;48.314;11.562;2024-02-15T03:47:52;6.40;99.90
36586;DHT22;22591;48.314;11.562;2024-02-15T03:50:18;6.40;99.90
36586;DHT22;22591;48.314;11.562;2024-02-15T03:52:44;6.40;99.90
36586;DHT22;22591;48.314;11.562;2024-02-15T03:55:10;6.40;99.90
36586;DHT22;22591;48.314;11.562;2024-02-15T03:57:40;6.40;99.90
36586;DHT22;22591;48.314;11.562;2024-02-15T04:00:07;6.50;99.90
36586;DHT22;22591;48.314;11.562;2024-02-15T04:02:33;6.50;99.90
36586;DHT22;22591;48.314;11.562;2024-02-15T04:05:00;6.70;99.90
36586;DHT22;22591;48.314;11.562;2024-02-15T04:07:26;6.60;99.90
36586;DHT22;22591;48.314;11.562;2024-02-15T04:09:52;6.60;99.90
36586;DHT22;22591;48.314;11.562;2024-02-15T04:12:18;6.60;99.90
36586;DHT22;22591;48.314;11.562;2024-02-15T04:14:44;6.60;99.90
36586;DHT22;22591;48.314;11.562;2024-02-15T04:17:14;6.80;99.90
36586;DHT22;22591;48.314;11.562;2024-02-15T04:19:45;6.80;99.90
36586;DHT22;22591;48.314;11.562;2024-02-15T04:22:12;6.70;99.90
36586;DHT22;22591;48.314;11.562;2024-02-15T04:24:37;6.70;99.90
36586;DHT22;22591;48.314;11.562;2024-02-15T04:27:09;6.50;99.90
36586;DHT22;22591;48.314;11.562;2024-02-15T04:29:39;6.40;99.90
36586;DHT22;22591;48.314;11.562;2024-02-15T04:32:10;6.30;99.90
36586;DHT22;22591;48.314;11.562;2024-02-15T04:34:39;6.30;99.90
36586;DHT22;22591;48.314;11.562;2024-02-15T04:37:05;6.20;99.90
36586;DHT22;22591;48.314;11.562;2024-02-15T04:39:35;6.20;99.90
36586;DHT22;22591;48.314;11.562;2024-02-15T04:42:02;6.20;99.90
36586;DHT22;22591;48.314;11.562;2024-02-15T04:44:27;6.10;99.90
36586;DHT22;22591;48.314;11.562;2024-02-15T04:46:54;6.20;99.90
36586;DHT22;22591;48.314;11.562;2024-02-15T04:49:20;6.30;99.90
36586;DHT22;22591;48.314;11.562;2024-02-15T04:51:46;6.40;99.90
36586;DHT22;22591;48.314;11.562;2024-02-15T04:54:13;6.30;99.90
36586;DHT22;22591;48.314;11.562;2024-02-15T04:56:39;6.00;99.90
36586;DHT22;22591;48.314;11.562;2024-02-15T04:59:05;5.90;99.90
36586;DHT22;22591;48.314;11.562;2024-02-15T05:01:34;6.00;99.90
36586;DHT22;22591;48.314;11.562;2024-02-15T05:04:01;6.00;99.90
36586;DHT22;22591;48.314;11.562;2024-02-15T05:06:31;6.00;99.90
36586;DHT22;22591;48.314;11.562;2024-02-15T05:08:57;6.00;99.90
36586;DHT22;22591;48.314;11.562;2024-02-15T05:11:25;5.90;99.90
36586;DHT22;22591;48.314;11.562;2024-02-15T05:13:51;6.00;99.90
36586;DHT22;22591;48.314;11.562;2024-02-15T05:16:16;6.00;99.90
36586;DHT22;22591;48.314;11.562;2024-02-15T05:18:42;6.00;99.90
36586;DHT22;22591;48.314;11.562;2024-02-15T05:21:07;6.00;99.90
36586;DHT22;22591;48.314;11.562;2024-02-15T05:23:36;6.00;99.90
36586;DHT22;22591;48.314;11.562;2024-02-15T05:26:03;5.90;99.90
36586;DHT22;22591;48.314;11.562;2024-02-15T05:28:29;6.00;99.90
36586;DHT22;22591;48.314;11.562;2024-02-15T05:31:14;5.90;99.90
36586;DHT22;22591;48.314;11.562;2024-02-15T05:33:43;5.90;99.90
36586;DHT22;22591;48.314;11.562;2024-02-15T05:36:11;5.90;99.90
36586;DHT22;22591;48.314;11.562;2024-02-15T05:38:37;5.80;99.90
36586;DHT22;22591;48.314;11.562;2024-02-15T05:41:02;5.60;99.90
36586;DHT22;22591;48.314;11.562;2024-02-15T05:43:28;5.70;99.90
36586;DHT22;22591;48.314;11.562;2024-02-15T05:45:54;5.70;99.90
36586;DHT22;22591;48.314;11.562;2024-02-15T05:48:20;5.70;99.90
36586;DHT22;22591;48.314;11.562;2024-02-15T05:50:46;5.70;99.90
36586;DHT22;22591;48.314;11.562;2024-02-15T05:53:12;5.80;99.90
36586;DHT22;22591;48.314;11.562;2024-02-15T05:55:38;5.70;99.90
36586;DHT22;22591;48.314;11.562;2024-02-15T05:58:06;5.60;99.90
36586;DHT22;22591;48.314;11.562;2024-02-15T06:00:34;5.50;99.90
36586;DHT22;22591;48.314;11.562;2024-02-15T06:03:00;5.50;99.90
36586;DHT22;22591;48.314;11.562;2024-02-15T06:05:28;5.50;99.90
36586;DHT22;22591;48.314;11.562;2024-02-15T06:07:54;5.40;99.90
36586;DHT22;22591;48.314;11.562;2024-02-15T06:10:19;5.50;99.90
36586;DHT22;22591;48.314;11.562;2024-02-15T06:12:45;5.70;99.90
36586;DHT22;22591;48.314;11.562;2024-02-15T06:15:10;5.80;99.90
36586;DHT22;22591;48.314;11.562;2024-02-15T06:17:42;5.70;99.90
36586;DHT22;22591;48.314;11.562;2024-02-15T06:20:15;5.70;99.90
36586;DHT22;22591;48.314;11.562;2024-02-15T06:22:43;5.80;99.90
36586;DHT22;22591;48.314;11.562;2024-02-15T06:25:09;5.80;99.90
36586;DHT22;22591;48.314;11.562;2024-02-15T06:27:36;6.00;99.90
36586;DHT22;22591;48.314;11.562;2024-02-15T06:30:06;6.20;99.90
36586;DHT22;22591;48.314;11.562;2024-02-15T06:32:51;6.30;99.90
36586;DHT22;22591;48.314;11.562;2024-02-15T06:35:35;6.40;99.90
36586;DHT22;22591;48.314;11.562;2024-02-15T06:38:19;6.40;99.90
36586;DHT22;22591;48.314;11.562;2024-02-15T06:41:03;6.50;99.90
36586;DHT22;22591;48.314;11.562;2024-02-15T06:43:29;6.50;99.90
36586;DHT22;22591;48.314;11.562;2024-02-15T06:45:55;6.60;99.90
36586;DHT22;22591;48.314;11.562;2024-02-15T06:48:20;6.60;99.90
36586;DHT22;22591;48.314;11.562;2024-02-15T06:50:49;6.60;99.90
36586;DHT22;22591;48.314;11.562;2024-02-15T06:53:14;6.60;99.90
36586;DHT22;22591;48.314;11.562;2024-02-15T06:55:40;6.60;99.90
36586;DHT22;22591;48.314;11.562;2024-02-15T06:58:06;6.60;99.90
36586;DHT22;22591;48.314;11.562;2024-02-15T07:00:31;6.70;99.90
36586;DHT22;22591;48.314;11.562;2024-02-15T07:02:57;6.60;99.90
36586;DHT22;22591;48.314;11.562;2024-02-15T07:05:22;6.70;99.90
36586;DHT22;22591;48.314;11.562;2024-02-15T07:07:49;6.70;99.90
36586;DHT22;22591;48.314;11.562;2024-02-15T07:10:15;6.70;99.90
36586;DHT22;22591;48.314;11.562;2024-02-15T07:12:42;6.60;99.90
36586;DHT22;22591;48.314;11.562;2024-02-15T07:15:09;6.60;99.90
36586;DHT22;22591;48.314;11.562;2024-02-15T07:17:35;6.60;99.90
36586;DHT22;22591;48.314;11.562;2024-02-15T07:20:02;6.50;99.90
36586;DHT22;22591;48.314;11.562;2024-02-15T07:22:30;6.50;99.90
36586;DHT22;22591;48.314;11.562;2024-02-15T07:24:57;6.60;99.90
36586;DHT22;22591;48.314;11.562;2024-02-15T07:27:22;6.60;99.90
36586;DHT22;22591;48.314;11.562;2024-02-15T07:29:51;6.60;99.90
36586;DHT22;22591;48.314;11.562;2024-02-15T07:32:17;6.60;99.90
36586;DHT22;22591;48.314;11.562;2024-02-15T07:34:43;6.50;99.90
36586;DHT22;22591;48.314;11.562;2024-02-15T07:37:10;6.50;99.90
36586;DHT22;22591;48.314;11.562;2024-02-15T07:39:37;6.50;99.90
36586;DHT22;22591;48.314;11.562;2024-02-15T07:42:03;6.60;99.90
36586;DHT22;22591;48.314;11.562;2024-02-15T07:44:30;6.60;99.90
36586;DHT22;22591;48.314;11.562;2024-02-15T07:46:58;6.60;99.90
36586;DHT22;22591;48.314;11.562;2024-02-15T07:49:26;6.60;99.90
36586;DHT22;22591;48.314;11.562;2024-02-15T07:51:51;6.70;99.90
36586;DHT22;22591;48.314;11.562;2024-02-15T07:54:21;6.80;99.90
36586;DHT22;22591;48.314;11.562;2024-02-15T07:56:48;6.90;99.90
36586;DHT22;22591;48.314;11.562;2024-02-15T07:59:14;7.00;99.90
36586;DHT22;22591;48.314;11.562;2024-02-15T08:01:43;7.00;99.90
36586;DHT22;22591;48.314;11.562;2024-02-15T08:04:11;6.90;99.90
36586;DHT22;22591;48.314;11.562;2024-02-15T08:06:36;7.20;99.90
36586;DHT22;22591;48.314;11.562;2024-02-15T08:09:04;7.30;99.90
36586;DHT22;22591;48.314;11.562;2024-02-15T08:11:32;7.40;99.90
36586;DHT22;22591;48.314;11.562;2024-02-15T08:13:58;7.50;99.90
36586;DHT22;22591;48.314;11.562;2024-02-15T08:16:27;7.50;99.90
36586;DHT22;22591;48.314;11.562;2024-02-15T08:18:53;7.70;99.90
36586;DHT22;22591;48.314;11.562;2024-02-15T08:21:25;7.80;99.90
36586;DHT22;22591;48.314;11.562;2024-02-15T08:23:51;7.90;99.90
36586;DHT22;22591;48.314;11.562;2024-02-15T08:26:17;8.00;99.90
36586;DHT22;22591;48.314;11.562;2024-02-15T08:28:42;8.10;99.90
36586;DHT22;22591;48.314;11.562;2024-02-15T08:31:09;8.10;99.90
36586;DHT22;22591;48.314;11.562;2024-02-15T08:33:36;8.00;99.90
36586;DHT22;22591;48.314;11.562;2024-02-15T08:36:04;8.10;99.90
36586;DHT22;22591;48.314;11.562;2024-02-15T08:38:31;8.10;99.90
36586;DHT22;22591;48.314;11.562;2024-02-15T08:40:56;8.20;99.90
36586;DHT22;22591;48.314;11.562;2024-02-15T08:43:22;8.30;99.90
36586;DHT22;22591;48.314;11.562;2024-02-15T08:45:48;8.50;99.90
36586;DHT22;22591;48.314;11.562;2024-02-15T08:48:14;8.60;99.90
36586;DHT22;22591;48.314;11.562;2024-02-15T08:50:41;8.80;99.90
36586;DHT22;22591;48.314;11.562;2024-02-15T08:53:07;8.90;99.90
36586;DHT22;22591;48.314;11.562;2024-02-15T08:55:33;9.00;99.90
36586;DHT22;22591;48.314;11.562;2024-02-15T08:58:01;9.10;99.90
36586;DHT22;22591;48.314;11.562;2024-02-15T09:00:28;9.00;99.90
36586;DHT22;22591;48.314;11.562;2024-02-15T09:02:53;8.90;99.90
36586;DHT22;22591;48.314;11.562;2024-02-15T09:05:19;9.20;99.90
36586;DHT22;22591;48.314;11.562;2024-02-15T09:07:47;9.20;99.90
36586;DHT22;22591;48.314;11.562;2024-02-15T09:10:14;9.30;99.90
36586;DHT22;22591;48.314;11.562;2024-02-15T09:12:41;9.40;99.90
36586;DHT22;22591;48.314;11.562;2024-02-15T09:15:08;9.50;99.90
36586;DHT22;22591;48.314;11.562;2024-02-15T09:17:34;9.70;99.90
36586;DHT22;22591;48.314;11.562;2024-02-15T09:20:08;9.80;99.90
36586;DHT22;22591;48.314;11.562;2024-02-15T09:22:42;9.70;99.90
36586;DHT22;22591;48.314;11.562;2024-02-15T09:25:08;9.80;99.90
36586;DHT22;22591;48.314;11.562;2024-02-15T09:27:34;10.00;99.90
36586;DHT22;22591;48.314;11.562;2024-02-15T09:30:00;10.10;99.90
36586;DHT22;22591;48.314;11.562;2024-02-15T09:32:25;10.20;99.90
36586;DHT22;22591;48.314;11.562;2024-02-15T09:34:51;10.30;99.90
36586;DHT22;22591;48.314;11.562;2024-02-15T09:37:17;10.40;99.90
36586;DHT22;22591;48.314;11.562;2024-02-15T09:39:42;10.40;99.90
36586;DHT22;22591;48.314;11.562;2024-02-15T09:42:09;10.60;99.90
36586;DHT22;22591;48.314;11.562;2024-02-15T09:44:35;10.80;99.90
36586;DHT22;22591;48.314;11.562;2024-02-15T09:47:05;10.60;99.90
36586;DHT22;22591;48.314;11.562;2024-02-15T09:49:38;10.70;99.90
36586;DHT22;22591;48.314;11.562;2024-02-15T09:52:06;10.90;99.90
36586;DHT22;22591;48.314;11.562;2024-02-15T09:54:39;10.90;99.90
36586;DHT22;22591;48.314;11.562;2024-02-15T09:57:06;11.20;99.90
36586;DHT22;22591;48.314;11.562;2024-02-15T09:59:33;11.20;99.90
36586;DHT22;22591;48.314;11.562;2024-02-15T10:02:01;10.90;99.90
36586;DHT22;22591;48.314;11.562;2024-02-15T10:04:27;11.00;99.90
36586;DHT22;22591;48.314;11.562;2024-02-15T10:06:53;11.00;99.90
36586;DHT22;22591;48.314;11.562;2024-02-15T10:09:28;11.20;99.90
36586;DHT22;22591;48.314;11.562;2024-02-15T10:11:55;11.30;99.90
36586;DHT22;22591;48.314;11.562;2024-02-15T10:14:22;11.30;99.90
36586;DHT22;22591;48.314;11.562;2024-02-15T10:16:48;11.30;99.90
36586;DHT22;22591;48.314;11.562;2024-02-15T10:19:15;11.30;99.90
36586;DHT22;22591;48.314;11.562;2024-02-15T10:21:42;11.10;99.90
36586;DHT22;22591;48.314;11.562;2024-02-15T10:24:09;11.30;99.90
36586;DHT22;22591;48.314;11.562;2024-02-15T10:26:35;11.40;99.90
36586;DHT22;22591;48.314;11.562;2024-02-15T10:29:05;11.50;99.90
36586;DHT22;22591;48.314;11.562;2024-02-15T10:31:40;11.80;99.90
36586;DHT22;22591;48.314;11.562;2024-02-15T10:34:16;11.90;99.90
36586;DHT22;22591;48.314;11.562;2024-02-15T10:36:44;11.80;99.90
36586;DHT22;22591;48.314;11.562;2024-02-15T10:39:14;11.80;99.90
36586;DHT22;22591;48.314;11.562;2024-02-15T10:41:49;11.90;99.90
36586;DHT22;22591;48.314;11.562;2024-02-15T10:44:19;12.60;99.90
36586;DHT22;22591;48.314;11.562;2024-02-15T10:46:49;12.60;99.90
36586;DHT22;22591;48.314;11.562;2024-02-15T10:49:22;12.60;99.40
36586;DHT22;22591;48.314;11.562;2024-02-15T10:51:58;12.70;99.50
36586;DHT22;22591;48.314;11.562;2024-02-15T10:54:46;12.80;98.90
36586;DHT22;22591;48.314;11.562;2024-02-15T10:57:12;12.60;99.10
36586;DHT22;22591;48.314;11.562;2024-02-15T10:59:47;12.80;99.10
36586;DHT22;22591;48.314;11.562;2024-02-15T11:02:26;12.90;98.10
36586;DHT22;22591;48.314;11.562;2024-02-15T11:04:53;12.60;98.90
36586;DHT22;22591;48.314;11.562;2024-02-15T11:07:24;12.60;98.70
36586;DHT22;22591;48.314;11.562;2024-02-15T11:09:51;12.70;98.80
36586;DHT22;22591;48.314;11.562;2024-02-15T11:12:18;12.70;98.70
36586;DHT22;22591;48.314;11.562;2024-02-15T11:14:46;13.10;98.70
36586;DHT22;22591;48.314;11.562;2024-02-15T11:20:10;12.50;99.80
36586;DHT22;22591;48.314;11.562;2024-02-15T11:22:56;12.50;99.60
36586;DHT22;22591;48.314;11.562;2024-02-15T11:25:34;12.70;99.80
36586;DHT22;22591;48.314;11.562;2024-02-15T11:30:53;12.80;98.80
36586;DHT22;22591;48.314;11.562;2024-02-15T11:33:30;12.80;99.20
36586;DHT22;22591;48.314;11.562;2024-02-15T11:36:14;12.80;98.70
36586;DHT22;22591;48.314;11.562;2024-02-15T11:38:41;12.80;98.00
36586;DHT22;22591;48.314;11.562;2024-02-15T11:41:09;12.70;98.50
36586;DHT22;22591;48.314;11.562;2024-02-15T11:46:19;13.00;98.00
36586;DHT22;22591;48.314;11.562;2024-02-15T11:48:51;12.90;98.10
36586;DHT22;22591;48.314;11.562;2024-02-15T11:51:32;13.00;97.70
36586;DHT22;22591;48.314;11.562;2024-02-15T11:54:08;13.10;97.50
36586;DHT22;22591;48.314;11.562;2024-02-15T11:59:20;13.00;97.50
36586;DHT22;22591;48.314;11.562;2024-02-15T12:01:57;13.20;96.30
36586;DHT22;22591;48.314;11.562;2024-02-15T12:04:42;13.40;95.70
36586;DHT22;22591;48.314;11.562;2024-02-15T12:07:26;13.70;97.20
36586;DHT22;22591;48.314;11.562;2024-02-15T12:10:17;13.60;96.80
36586;DHT22;22591;48.314;11.562;2024-02-15T12:13:01;13.60;96.10
36586;DHT22;22591;48.314;11.562;2024-02-15T12:16:00;13.60;95.90
36586;DHT22;22591;48.314;11.562;2024-02-15T12:18:45;13.40;96.30
36586;DHT22;22591;48.314;11.562;2024-02-15T12:21:17;13.60;96.30
36586;DHT22;22591;48.314;11.562;2024-02-15T12:23:43;13.70;95.90
36586;DHT22;22591;48.314;11.562;2024-02-15T12:26:09;13.80;95.70
36586;DHT22;22591;48.314;11.562;2024-02-15T12:28:35;14.00;95.50
36586;DHT22;22591;48.314;11.562;2024-02-15T12:31:01;14.10;94.50
36586;DHT22;22591;48.314;11.562;2024-02-15T12:33:27;14.00;94.50
36586;DHT22;22591;48.314;11.562;2024-02-15T12:36:09;14.20;94.10
36586;DHT22;22591;48.314;11.562;2024-02-15T12:38:35;14.30;93.50
36586;DHT22;22591;48.314;11.562;2024-02-15T12:41:25;14.20;93.70
36586;DHT22;22591;48.314;11.562;2024-02-15T12:43:53;14.30;94.40
36586;DHT22;22591;48.314;11.562;2024-02-15T12:46:20;14.10;93.90
36586;DHT22;22591;48.314;11.562;2024-02-15T12:48:45;13.90;95.80
36586;DHT22;22591;48.314;11.562;2024-02-15T12:51:15;13.60;95.10
36586;DHT22;22591;48.314;11.562;2024-02-15T12:53:41;13.60;96.60
36586;DHT22;22591;48.314;11.562;2024-02-15T12:56:09;13.70;96.50
36586;DHT22;22591;48.314;11.562;2024-02-15T12:58:35;13.70;96.70
36586;DHT22;22591;48.314;11.562;2024-02-15T13:01:01;13.80;96.20
36586;DHT22;22591;48.314;11.562;2024-02-15T13:03:27;13.80;96.80
36586;DHT22;22591;48.314;11.562;2024-02-15T13:05:52;13.60;97.10
36586;DHT22;22591;48.314;11.562;2024-02-15T13:08:18;13.80;97.50
36586;DHT22;22591;48.314;11.562;2024-02-15T13:10:45;13.70;96.90
36586;DHT22;22591;48.314;11.562;2024-02-15T13:13:11;13.80;96.60
36586;DHT22;22591;48.314;11.562;2024-02-15T13:15:39;13.90;96.30
36586;DHT22;22591;48.314;11.562;2024-02-15T13:18:05;14.00;96.10
36586;DHT22;22591;48.314;11.562;2024-02-15T13:20:31;13.90;96.30
36586;DHT22;22591;48.314;11.562;2024-02-15T13:23:10;13.80;95.90
36586;DHT22;22591;48.314;11.562;2024-02-15T13:25:49;13.90;95.90
36586;DHT22;22591;48.314;11.562;2024-02-15T13:28:15;14.00;95.50
36586;DHT22;22591;48.314;11.562;2024-02-15T13:30:42;14.00;96.30
36586;DHT22;22591;48.314;11.562;2024-02-15T13:33:13;14.00;95.40
36586;DHT22;22591;48.314;11.562;2024-02-15T13:35:39;13.80;96.30
36586;DHT22;22591;48.314;11.562;2024-02-15T13:38:04;14.00;97.60
36586;DHT22;22591;48.314;11.562;2024-02-15T13:40:30;14.10;96.30
36586;DHT22;22591;48.314;11.562;2024-02-15T13:42:58;14.00;95.70
36586;DHT22;22591;48.314;11.562;2024-02-15T13:45:28;14.00;95.90
36586;DHT22;22591;48.314;11.562;2024-02-15T13:47:59;14.10;96.40
36586;DHT22;22591;48.314;11.562;2024-02-15T13:50:31;14.30;95.00
36586;DHT22;22591;48.314;11.562;2024-02-15T13:52:57;14.30;94.90
36586;DHT22;22591;48.314;11.562;2024-02-15T13:55:26;14.20;96.60
36586;DHT22;22591;48.314;11.562;2024-02-15T13:57:54;14.00;95.70
36586;DHT22;22591;48.314;11.562;2024-02-15T14:00:21;13.90;95.30
36586;DHT22;22591;48.314;11.562;2024-02-15T14:02:54;13.90;95.10
36586;DHT22;22591;48.314;11.562;2024-02-15T14:05:24;13.80;94.10
36586;DHT22;22591;48.314;11.562;2024-02-15T14:07:54;13.80;94.60
36586;DHT22;22591;48.314;11.562;2024-02-15T14:10:21;13.80;95.00
36586;DHT22;22591;48.314;11.562;2024-02-15T14:12:47;13.80;95.10
36586;DHT22;22591;48.314;11.562;2024-02-15T14:15:15;13.60;95.10
36586;DHT22;22591;48.314;11.562;2024-02-15T14:17:42;13.60;95.30
36586;DHT22;22591;48.314;11.562;2024-02-15T14:20:09;13.50;95.60
36586;DHT22;22591;48.314;11.562;2024-02-15T14:22:39;13.70;95.00
36586;DHT22;22591;48.314;11.562;2024-02-15T14:25:05;13.80;95.10
36586;DHT22;22591;48.314;11.562;2024-02-15T14:27:31;13.80;95.30
36586;DHT22;22591;48.314;11.562;2024-02-15T14:29:57;13.90;94.70
36586;DHT22;22591;48.314;11.562;2024-02-15T14:32:43;13.90;94.00
36586;DHT22;22591;48.314;11.562;2024-02-15T14:35:27;13.90;95.10
36586;DHT22;22591;48.314;11.562;2024-02-15T14:37:55;13.90;96.30
36586;DHT22;22591;48.314;11.562;2024-02-15T14:40:24;13.80;95.90
36586;DHT22;22591;48.314;11.562;2024-02-15T14:42:50;14.00;94.50
36586;DHT22;22591;48.314;11.562;2024-02-15T14:45:16;13.90;94.60
36586;DHT22;22591;48.314;11.562;2024-02-15T14:47:41;14.00;93.50
36586;DHT22;22591;48.314;11.562;2024-02-15T14:50:09;14.10;93.90
36586;DHT22;22591;48.314;11.562;2024-02-15T14:52:38;13.90;94.10
36586;DHT22;22591;48.314;11.562;2024-02-15T14:55:04;13.80;93.40
36586;DHT22;22591;48.314;11.562;2024-02-15T14:57:31;13.70;94.00
36586;DHT22;22591;48.314;11.562;2024-02-15T14:59:57;13.80;94.40
36586;DHT22;22591;48.314;11.562;2024-02-15T15:02:23;13.60;95.40
36586;DHT22;22591;48.314;11.562;2024-02-15T15:04:48;13.60;96.40
36586;DHT22;22591;48.314;11.562;2024-02-15T15:07:44;13.60;96.70
36586;DHT22;22591;48.314;11.562;2024-02-15T15:10:30;13.60;95.50
36586;DHT22;22591;48.314;11.562;2024-02-15T15:13:14;13.50;96.20
36586;DHT22;22591;48.314;11.562;2024-02-15T15:15:39;13.40;97.80
36586;DHT22;22591;48.314;11.562;2024-02-15T15:18:06;13.40;97.50
36586;DHT22;22591;48.314;11.562;2024-02-15T15:20:33;13.30;97.90
36586;DHT22;22591;48.314;11.562;2024-02-15T15:23:00;13.20;98.00
36586;DHT22;22591;48.314;11.562;2024-02-15T15:25:26;13.10;97.60
36586;DHT22;22591;48.314;11.562;2024-02-15T15:27:54;13.00;98.00
36586;DHT22;22591;48.314;11.562;2024-02-15T15:30:20;12.90;97.70
36586;DHT22;22591;48.314;11.562;2024-02-15T15:32:46;12.90;98.50
36586;DHT22;22591;48.314;11.562;2024-02-15T15:35:12;12.90;97.80
36586;DHT22;22591;48.314;11.562;2024-02-15T15:37:39;12.80;98.20
36586;DHT22;22591;48.314;11.562;2024-02-15T15:40:05;12.80;99.10
36586;DHT22;22591;48.314;11.562;2024-02-15T15:42:34;12.70;99.00